Terminal Aerodrome Forecast
Issued by NWS

Home | Current Version | Previous Version | Text Only | Print | Product List | Glossary On
Versions: 1 2 3 4 5 6 7 8 9 10 11 12 13
048
FTUS45 KABQ 282324
TAFSAF
TAF
KSAF 282324Z 2900/2924 17020G30KT P6SM BKN080
     FM290200 17013KT P6SM BKN070
     FM290600 34011KT P6SM VCSH OVC060
     FM291000 35009KT P6SM VCSH OVC050
     FM291800 26012KT P6SM BKN050
     FM292100 27016G26KT P6SM VCSH OVC050=

USA.gov is the U.S. government's official web portal to all federal, state and local government web resources and services.